createdAt,value
2022-09-30T00:01:46.242Z,55.23
2022-09-30T00:04:17.415Z,53.33
2022-09-30T00:06:46.604Z,59.97
2022-09-30T00:09:15.697Z,57.73
2022-09-30T00:11:47.581Z,59.13
2022-09-30T00:14:19.131Z,57.80
2022-09-30T00:16:47.955Z,60.87
2022-09-30T00:19:17.342Z,63.33
2022-09-30T00:21:46.485Z,62.20
2022-09-30T00:24:15.733Z,66.13
2022-09-30T00:26:46.090Z,63.63
2022-09-30T00:29:14.935Z,64.50
2022-09-30T00:31:44.215Z,67.93
2022-09-30T00:34:13.111Z,61.67
2022-09-30T00:36:44.864Z,59.00
2022-09-30T00:39:16.367Z,57.77
2022-09-30T00:41:49.292Z,59.93
2022-09-30T00:44:47.375Z,62.33
2022-09-30T00:47:31.700Z,58.00
2022-09-30T00:50:03.933Z,55.77
2022-09-30T00:52:33.847Z,57.73
2022-09-30T00:55:06.020Z,54.17
2022-09-30T00:57:36.851Z,52.37
2022-09-30T01:00:06.414Z,49.67
2022-09-30T01:02:36.485Z,51.93
2022-09-30T01:05:05.877Z,62.00
2022-09-30T01:07:37.720Z,61.43
2022-09-30T01:10:07.106Z,59.83
2022-09-30T01:12:37.240Z,59.93
2022-09-30T01:15:06.801Z,59.03
2022-09-30T01:17:47.270Z,60.30
2022-09-30T01:20:52.336Z,64.37
2022-09-30T01:24:10.640Z,60.43
2022-09-30T01:27:15.341Z,57.47
2022-09-30T01:30:19.162Z,53.07
2022-09-30T01:33:22.361Z,60.27
2022-09-30T01:36:07.355Z,58.60
2022-09-30T01:38:48.435Z,59.50
2022-09-30T01:41:25.726Z,55.23
2022-09-30T01:44:03.152Z,57.83
2022-09-30T01:46:38.028Z,54.13
2022-09-30T01:49:15.545Z,52.93
2022-09-30T01:51:53.517Z,56.97
2022-09-30T01:54:28.968Z,57.77
2022-09-30T01:57:04.868Z,54.67
2022-09-30T01:59:37.571Z,55.53
2022-09-30T02:02:11.174Z,63.63
2022-09-30T02:04:46.403Z,63.07
2022-09-30T02:07:20.082Z,61.53
2022-09-30T02:09:55.056Z,59.20
2022-09-30T02:12:29.315Z,61.87
2022-09-30T02:15:03.468Z,58.20
2022-09-30T02:17:37.798Z,58.10
2022-09-30T02:20:13.874Z,56.00
2022-09-30T02:22:47.117Z,58.50
2022-09-30T02:25:20.723Z,53.03
2022-09-30T02:27:55.058Z,57.80
2022-09-30T02:30:23.987Z,57.90
2022-09-30T02:32:56.481Z,54.60
2022-09-30T02:35:31.117Z,56.37
2022-09-30T02:38:05.927Z,55.23
2022-09-30T02:40:40.840Z,54.47
2022-09-30T02:43:11.357Z,57.23
2022-09-30T02:45:45.112Z,58.13
2022-09-30T02:48:25.299Z,57.27
2022-09-30T02:51:01.870Z,54.63
2022-09-30T02:53:37.456Z,54.30
2022-09-30T02:56:14.569Z,55.97
2022-09-30T02:58:44.609Z,50.80
2022-09-30T03:01:16.498Z,54.70
2022-09-30T03:03:48.399Z,53.83
2022-09-30T03:06:19.333Z,55.23
2022-09-30T03:08:48.898Z,51.80
2022-09-30T03:11:19.821Z,51.83
2022-09-30T03:14:16.836Z,50.77
2022-09-30T03:16:56.714Z,52.33
2022-09-30T03:19:42.353Z,52.47
2022-09-30T03:22:32.590Z,55.57
2022-09-30T03:25:16.908Z,56.27
2022-09-30T03:28:00.218Z,52.53
2022-09-30T03:30:30.771Z,52.07
2022-09-30T03:33:12.290Z,55.13
2022-09-30T03:35:49.043Z,51.23
2022-09-30T03:38:30.848Z,55.33
2022-09-30T03:41:05.921Z,53.43
2022-09-30T03:43:38.426Z,56.17
2022-09-30T03:46:15.401Z,51.33
2022-09-30T03:48:45.517Z,56.20
2022-09-30T03:51:14.976Z,48.47
2022-09-30T03:53:46.867Z,47.83
2022-09-30T03:56:16.099Z,49.60
2022-09-30T03:58:45.689Z,49.77
2022-09-30T04:01:21.546Z,51.83
2022-09-30T04:03:52.483Z,55.40
2022-09-30T04:06:23.013Z,108.33
2022-09-30T04:08:54.499Z,76.43
2022-09-30T04:11:23.200Z,68.50
2022-09-30T04:13:52.082Z,63.87
2022-09-30T04:16:20.838Z,64.40
2022-09-30T04:18:49.651Z,56.80
2022-09-30T04:21:18.288Z,59.67
2022-09-30T04:23:46.989Z,56.57
2022-09-30T04:26:20.144Z,63.17
2022-09-30T04:28:48.890Z,59.27
2022-09-30T04:31:20.587Z,55.47
2022-09-30T04:33:50.748Z,54.57
2022-09-30T04:36:19.362Z,53.13
2022-09-30T04:38:48.043Z,61.07
2022-09-30T04:41:18.806Z,68.07
2022-09-30T04:43:48.847Z,64.90
2022-09-30T04:46:18.378Z,64.97
2022-09-30T04:48:48.239Z,63.43
2022-09-30T04:51:18.863Z,62.13
2022-09-30T04:53:48.941Z,63.33
2022-09-30T04:56:19.372Z,65.23
2022-09-30T04:58:48.203Z,68.93
2022-09-30T05:01:18.450Z,67.90
2022-09-30T05:03:48.825Z,69.10
2022-09-30T05:06:17.857Z,74.70
2022-09-30T05:08:46.835Z,71.37
2022-09-30T05:11:19.938Z,66.93
2022-09-30T05:13:51.067Z,72.13
2022-09-30T05:16:20.264Z,80.53
2022-09-30T05:18:49.609Z,67.67
2022-09-30T05:21:20.655Z,67.70
2022-09-30T05:23:49.595Z,70.50
2022-09-30T05:26:19.970Z,73.30
2022-09-30T05:28:48.445Z,70.77
2022-09-30T05:31:17.288Z,70.03
2022-09-30T05:33:47.047Z,76.87
2022-09-30T05:36:17.011Z,75.70
2022-09-30T05:38:45.808Z,77.50
2022-09-30T05:41:15.708Z,75.07
2022-09-30T05:43:47.887Z,74.50
2022-09-30T05:46:17.041Z,72.63
2022-09-30T05:48:46.469Z,71.10
2022-09-30T05:51:15.549Z,71.60
2022-09-30T05:53:44.826Z,66.13
2022-09-30T05:56:14.006Z,64.93
2022-09-30T05:58:42.513Z,56.67
2022-09-30T06:01:14.702Z,58.20
2022-09-30T06:03:43.767Z,53.23
2022-09-30T06:06:13.046Z,56.63
2022-09-30T06:08:44.556Z,51.63
2022-09-30T06:11:15.836Z,45.40
2022-09-30T06:13:45.705Z,48.27
2022-09-30T06:16:18.489Z,46.40
2022-09-30T06:18:47.793Z,51.00
2022-09-30T06:21:18.158Z,52.07
2022-09-30T06:23:47.937Z,52.30
2022-09-30T06:26:16.820Z,53.77
2022-09-30T06:28:45.558Z,53.53
2022-09-30T06:31:16.032Z,51.23
2022-09-30T06:33:45.253Z,49.53
2022-09-30T06:36:13.998Z,47.23
2022-09-30T06:38:42.701Z,44.87
2022-09-30T06:41:11.508Z,45.07
2022-09-30T06:43:51.097Z,41.63
2022-09-30T06:46:32.802Z,40.13
2022-09-30T06:49:11.814Z,37.87
2022-09-30T06:51:42.726Z,38.73
2022-09-30T06:54:11.576Z,35.30
2022-09-30T06:56:40.386Z,34.43
2022-09-30T06:59:09.379Z,35.50
2022-09-30T07:01:39.693Z,34.83
2022-09-30T07:04:10.136Z,34.13
2022-09-30T07:06:39.724Z,35.07
2022-09-30T07:09:08.874Z,35.17
2022-09-30T07:11:38.649Z,33.50
2022-09-30T07:14:07.947Z,34.87
2022-09-30T07:16:36.855Z,38.90
2022-09-30T07:19:09.108Z,36.10
2022-09-30T07:21:39.677Z,36.30
2022-09-30T07:24:09.381Z,38.40
2022-09-30T07:26:39.730Z,34.00
2022-09-30T07:29:08.552Z,33.20
2022-09-30T07:31:37.313Z,31.53
2022-09-30T07:34:09.314Z,30.47
2022-09-30T07:36:40.565Z,31.23
2022-09-30T07:39:11.059Z,31.97
2022-09-30T07:41:41.252Z,30.50
2022-09-30T07:44:13.355Z,31.07
2022-09-30T07:46:43.272Z,28.23
2022-09-30T07:49:16.106Z,28.43
2022-09-30T07:51:45.752Z,28.43
2022-09-30T07:54:16.854Z,26.83
2022-09-30T07:57:08.649Z,26.27
2022-09-30T07:59:36.981Z,25.67
2022-09-30T08:02:07.101Z,25.47
2022-09-30T08:04:42.873Z,23.47
2022-09-30T08:07:13.368Z,27.93
2022-09-30T08:09:42.171Z,24.27
2022-09-30T08:12:11.451Z,23.50
2022-09-30T08:14:40.254Z,24.03
2022-09-30T08:17:09.008Z,24.20
2022-09-30T08:19:44.186Z,25.17
2022-09-30T08:22:14.193Z,23.53
2022-09-30T08:24:43.258Z,20.90
2022-09-30T08:27:12.175Z,22.87
2022-09-30T08:29:58.357Z,22.43
2022-09-30T08:32:31.387Z,21.37
2022-09-30T08:35:01.812Z,22.63
2022-09-30T08:37:30.592Z,21.13
2022-09-30T08:39:59.700Z,19.57
2022-09-30T08:42:42.805Z,19.43
2022-09-30T08:45:27.292Z,22.90
2022-09-30T08:48:05.446Z,19.80
2022-09-30T08:50:45.991Z,21.00
2022-09-30T08:53:21.829Z,21.03
2022-09-30T08:55:51.010Z,19.60
2022-09-30T08:58:27.210Z,20.93
2022-09-30T09:01:00.335Z,30.70
2022-09-30T09:03:31.954Z,19.43
2022-09-30T09:06:14.225Z,19.87
2022-09-30T09:08:59.072Z,18.87
2022-09-30T09:11:43.432Z,19.40
2022-09-30T09:14:26.339Z,18.30
2022-09-30T09:17:10.639Z,17.83
2022-09-30T09:19:48.722Z,18.43
2022-09-30T09:22:24.481Z,18.27
2022-09-30T09:24:55.816Z,19.37
2022-09-30T09:27:28.340Z,19.97
2022-09-30T09:30:07.629Z,19.03
2022-09-30T09:32:36.828Z,20.50
2022-09-30T09:35:15.142Z,20.97
2022-09-30T09:38:12.757Z,19.50
2022-09-30T09:40:57.410Z,17.43
2022-09-30T09:43:37.010Z,17.23
2022-09-30T09:46:14.808Z,17.67
2022-09-30T09:48:44.316Z,18.67
2022-09-30T09:51:20.888Z,19.77
2022-09-30T09:53:52.808Z,18.10
2022-09-30T09:56:25.489Z,17.57
2022-09-30T09:59:19.723Z,19.73
2022-09-30T10:01:51.561Z,17.43
2022-09-30T10:04:24.736Z,18.33
2022-09-30T10:06:56.214Z,21.83
2022-09-30T10:09:35.726Z,18.93
2022-09-30T10:12:27.996Z,18.47
2022-09-30T10:15:03.256Z,18.97
2022-09-30T10:17:34.310Z,21.00
2022-09-30T10:20:07.403Z,20.87
2022-09-30T10:22:38.016Z,18.10
2022-09-30T10:25:24.584Z,20.43
2022-09-30T10:27:59.541Z,19.03
2022-09-30T10:30:47.109Z,17.37
2022-09-30T10:33:23.575Z,18.87
2022-09-30T10:35:57.216Z,20.33
2022-09-30T10:38:29.378Z,19.93
2022-09-30T10:41:00.396Z,16.13
2022-09-30T10:43:34.474Z,17.33
2022-09-30T10:46:25.169Z,20.90
2022-09-30T10:48:57.747Z,18.60
2022-09-30T10:51:31.053Z,21.80
2022-09-30T10:53:59.842Z,16.33
2022-09-30T10:56:39.278Z,16.23
2022-09-30T10:59:19.779Z,18.57
2022-09-30T11:01:57.461Z,21.37
2022-09-30T11:04:35.198Z,22.13
2022-09-30T11:07:15.780Z,26.77
2022-09-30T11:09:51.880Z,21.00
2022-09-30T11:12:31.738Z,20.60
2022-09-30T11:15:08.522Z,23.43
2022-09-30T11:17:43.312Z,21.13
2022-09-30T11:20:20.295Z,21.50
2022-09-30T11:22:56.767Z,22.07
2022-09-30T11:25:31.858Z,21.67
2022-09-30T11:28:16.598Z,18.27
2022-09-30T11:30:54.986Z,19.03
2022-09-30T11:33:44.662Z,18.00
2022-09-30T11:36:23.949Z,18.95
2022-09-30T11:39:25.442Z,17.60
2022-09-30T11:42:01.632Z,16.00
2022-09-30T11:44:35.798Z,18.63
2022-09-30T11:47:25.889Z,17.73
2022-09-30T11:50:06.905Z,16.42
2022-09-30T11:52:49.125Z,17.77
2022-09-30T11:55:37.903Z,14.93
2022-09-30T11:58:36.314Z,13.20
2022-09-30T12:01:05.591Z,13.43
2022-09-30T12:03:39.666Z,12.53
2022-09-30T12:06:14.397Z,14.45
2022-09-30T12:08:50.611Z,12.63
2022-09-30T12:11:24.196Z,13.13
2022-09-30T12:13:56.359Z,10.18
2022-09-30T12:16:31.031Z,11.57
2022-09-30T12:19:12.649Z,12.90
2022-09-30T12:21:47.632Z,12.40
2022-09-30T12:24:25.401Z,12.60
2022-09-30T12:26:55.023Z,10.27
2022-09-30T12:29:45.414Z,13.88
2022-09-30T12:35:28.275Z,13.32
2022-09-30T12:38:13.121Z,11.75
2022-09-30T12:40:56.569Z,11.77
2022-09-30T12:43:56.336Z,12.83
2022-09-30T12:46:42.916Z,15.50
2022-09-30T12:49:17.917Z,15.47
2022-09-30T12:51:52.568Z,14.67
2022-09-30T12:54:26.276Z,15.25
2022-09-30T12:56:59.441Z,14.33
2022-09-30T12:59:31.243Z,12.97
2022-09-30T13:02:01.717Z,14.87
2022-09-30T13:04:36.712Z,17.03
2022-09-30T13:07:19.693Z,13.93
2022-09-30T13:10:03.200Z,12.23
2022-09-30T13:12:43.820Z,13.90
2022-09-30T13:15:41.252Z,14.07
2022-09-30T13:18:47.331Z,13.53
2022-09-30T13:21:22.575Z,13.17
2022-09-30T13:23:53.860Z,11.60
2022-09-30T13:26:34.992Z,12.73
2022-09-30T13:29:38.290Z,12.63
2022-09-30T13:32:09.530Z,13.40
2022-09-30T13:34:56.870Z,10.67
2022-09-30T13:37:38.968Z,10.43
2022-09-30T13:40:32.725Z,12.87
2022-09-30T13:43:15.500Z,9.87
2022-09-30T13:45:46.921Z,8.67
2022-09-30T13:48:20.554Z,8.43
2022-09-30T13:50:52.694Z,7.47
2022-09-30T13:53:28.958Z,8.35
2022-09-30T13:56:01.809Z,13.73
2022-09-30T13:58:54.928Z,10.45
2022-09-30T14:01:45.649Z,8.40
2022-09-30T14:04:50.682Z,8.27
2022-09-30T14:07:37.753Z,8.13
2022-09-30T14:10:36.109Z,8.80
2022-09-30T14:13:23.022Z,9.00
2022-09-30T14:16:19.244Z,8.50
2022-09-30T14:19:07.949Z,11.97
2022-09-30T14:21:40.495Z,8.77
2022-09-30T14:24:16.143Z,8.20
2022-09-30T14:27:23.267Z,7.90
2022-09-30T14:30:02.444Z,8.37
2022-09-30T14:32:34.074Z,14.73
2022-09-30T14:35:07.805Z,5.40
2022-09-30T14:37:43.121Z,11.93
2022-09-30T14:40:16.522Z,6.37
2022-09-30T14:42:48.015Z,12.23
2022-09-30T14:45:26.772Z,7.97
2022-09-30T14:47:59.522Z,16.93
2022-09-30T14:50:31.266Z,12.50
2022-09-30T14:53:02.886Z,10.37
2022-09-30T14:55:34.222Z,11.93
2022-09-30T14:58:28.408Z,7.80
2022-09-30T15:01:08.115Z,6.90
2022-09-30T15:03:40.464Z,6.07
2022-09-30T15:06:20.888Z,6.83
2022-09-30T15:08:50.819Z,6.60
2022-09-30T15:11:21.415Z,8.50
2022-09-30T15:13:52.646Z,8.13
2022-09-30T15:16:27.569Z,7.97
2022-09-30T15:18:56.686Z,12.57
2022-09-30T15:21:28.175Z,12.30
2022-09-30T15:24:00.738Z,9.93
2022-09-30T15:26:30.207Z,13.00
2022-09-30T15:28:59.194Z,12.30
2022-09-30T15:31:30.642Z,9.77
2022-09-30T15:34:08.278Z,8.90
2022-09-30T15:36:38.830Z,8.30
2022-09-30T15:39:19.087Z,13.93
2022-09-30T15:41:48.761Z,18.50
2022-09-30T15:44:20.658Z,17.43
2022-09-30T15:47:05.094Z,12.73
2022-09-30T15:49:45.389Z,11.97
2022-09-30T15:52:36.931Z,15.30
2022-09-30T15:55:37.945Z,18.97
2022-09-30T15:58:26.814Z,21.07
2022-09-30T16:01:10.691Z,16.43
2022-09-30T16:03:50.009Z,13.73
2022-09-30T16:06:26.144Z,17.20
2022-09-30T16:09:02.253Z,14.33
2022-09-30T16:11:34.994Z,10.97
2022-09-30T16:14:06.298Z,14.17
2022-09-30T16:16:37.854Z,19.30
2022-09-30T16:19:18.570Z,17.57
2022-09-30T16:21:50.981Z,16.23
2022-09-30T16:24:45.620Z,12.90
2022-09-30T16:27:32.825Z,14.67
2022-09-30T16:30:02.687Z,12.90
2022-09-30T16:32:38.493Z,15.40
2022-09-30T16:35:17.828Z,12.87
2022-09-30T16:37:47.501Z,12.33
2022-09-30T16:40:27.545Z,13.73
2022-09-30T16:42:58.683Z,43.73
2022-09-30T16:45:28.816Z,32.33
2022-09-30T16:47:59.172Z,52.67
2022-09-30T16:50:36.971Z,280.90
2022-09-30T16:53:06.040Z,171.60
2022-09-30T16:55:34.912Z,144.93
2022-09-30T16:58:04.673Z,97.93
2022-09-30T17:00:33.599Z,46.07
2022-09-30T17:03:02.324Z,31.53
2022-09-30T17:05:32.703Z,31.97
2022-09-30T17:08:01.897Z,34.17
2022-09-30T17:10:32.459Z,27.80
2022-09-30T17:13:03.163Z,29.37
2022-09-30T17:15:36.195Z,32.77
2022-09-30T17:18:08.151Z,35.20
2022-09-30T17:20:39.350Z,37.50
2022-09-30T17:23:08.043Z,34.70
2022-09-30T17:25:41.116Z,38.77
2022-09-30T17:28:10.978Z,53.20
2022-09-30T17:30:41.258Z,57.20
2022-09-30T17:33:10.682Z,88.17
2022-09-30T17:35:41.268Z,76.13
2022-09-30T17:38:11.127Z,73.53
2022-09-30T17:40:57.508Z,56.73
2022-09-30T17:43:26.271Z,38.20
2022-09-30T17:45:59.803Z,34.23
2022-09-30T17:48:28.725Z,30.80
2022-09-30T17:51:00.033Z,31.87
2022-09-30T17:53:29.303Z,37.57
2022-09-30T17:56:04.000Z,33.40
2022-09-30T17:58:33.488Z,33.57
2022-09-30T18:01:07.950Z,26.57
2022-09-30T18:03:37.094Z,28.07
2022-09-30T18:06:07.744Z,25.23
2022-09-30T18:08:36.598Z,32.40
2022-09-30T18:11:05.366Z,25.70
2022-09-30T18:13:34.231Z,25.23
2022-09-30T18:16:08.133Z,37.53
2022-09-30T18:18:36.775Z,49.17
2022-09-30T18:21:07.540Z,44.63
2022-09-30T18:23:36.374Z,55.43
2022-09-30T18:26:05.237Z,59.60
2022-09-30T18:28:34.097Z,59.90
2022-09-30T18:31:06.618Z,66.43
2022-09-30T18:33:35.579Z,40.17
2022-09-30T18:36:06.779Z,36.87
2022-09-30T18:38:35.548Z,36.70
2022-09-30T18:41:07.457Z,33.73
2022-09-30T18:43:36.586Z,34.43
2022-09-30T18:46:05.987Z,40.07
2022-09-30T18:48:36.450Z,47.53
2022-09-30T18:51:08.727Z,37.73
2022-09-30T18:53:37.700Z,38.53
2022-09-30T18:56:06.924Z,39.33
2022-09-30T18:58:36.688Z,46.73
2022-09-30T19:01:05.796Z,53.20
2022-09-30T19:03:34.639Z,59.03
2022-09-30T19:06:09.692Z,35.53
2022-09-30T19:08:38.868Z,33.77
2022-09-30T19:11:12.991Z,28.30
2022-09-30T19:13:43.214Z,32.07
2022-09-30T19:16:12.876Z,33.13
2022-09-30T19:18:41.867Z,33.73
2022-09-30T19:21:16.133Z,30.30
2022-09-30T19:23:44.849Z,31.83
2022-09-30T19:26:15.582Z,29.73
2022-09-30T19:28:44.240Z,29.57
2022-09-30T19:31:15.351Z,34.30
2022-09-30T19:33:55.251Z,36.40
2022-09-30T19:36:26.916Z,40.37
2022-09-30T19:39:10.771Z,41.03
2022-09-30T19:41:40.752Z,38.53
2022-09-30T19:44:09.630Z,36.60
2022-09-30T19:46:38.205Z,41.87
2022-09-30T19:49:06.737Z,37.90
2022-09-30T19:51:36.822Z,33.40
2022-09-30T19:54:07.668Z,34.27
2022-09-30T19:56:37.911Z,32.47
2022-09-30T19:59:06.781Z,33.40
2022-09-30T20:01:36.246Z,30.93
2022-09-30T20:04:06.070Z,32.73
2022-09-30T20:06:37.244Z,36.90
2022-09-30T20:09:08.597Z,32.27
2022-09-30T20:11:39.081Z,33.60
2022-09-30T20:14:27.133Z,35.13
2022-09-30T20:16:56.506Z,34.23
2022-09-30T20:19:25.255Z,38.60
2022-09-30T20:21:55.550Z,36.40
2022-09-30T20:24:24.798Z,33.90
2022-09-30T20:26:53.830Z,37.40
2022-09-30T20:29:22.306Z,36.37
2022-09-30T20:31:51.826Z,36.90
2022-09-30T20:34:20.683Z,38.13
2022-09-30T20:36:49.417Z,41.03
2022-09-30T20:39:19.228Z,36.73
2022-09-30T20:41:47.999Z,35.63
2022-09-30T20:44:19.512Z,35.20
2022-09-30T20:46:48.154Z,35.23
2022-09-30T20:49:16.928Z,36.83
2022-09-30T20:51:45.594Z,34.67
2022-09-30T20:54:14.528Z,35.17
2022-09-30T20:57:06.301Z,32.40
2022-09-30T20:59:33.395Z,32.43
2022-09-30T21:02:02.140Z,33.90
2022-09-30T21:04:30.932Z,32.80
2022-09-30T21:07:01.083Z,37.93
2022-09-30T21:09:29.600Z,45.47
2022-09-30T21:12:00.357Z,39.67
2022-09-30T21:14:28.927Z,41.57
2022-09-30T21:16:57.370Z,39.50
2022-09-30T21:19:26.128Z,39.03
2022-09-30T21:21:56.361Z,40.97
2022-09-30T21:24:26.078Z,35.50
2022-09-30T21:26:55.923Z,37.17
2022-09-30T21:29:26.195Z,36.80
2022-09-30T21:31:54.715Z,34.23
2022-09-30T21:34:23.437Z,38.87
2022-09-30T21:36:51.908Z,38.90
2022-09-30T21:39:20.443Z,38.00
2022-09-30T21:41:48.927Z,39.00
2022-09-30T21:44:17.785Z,35.13
2022-09-30T21:46:50.112Z,40.53
2022-09-30T21:49:20.230Z,36.10
2022-09-30T21:51:48.781Z,38.37
2022-09-30T21:54:17.494Z,33.03
2022-09-30T21:56:46.429Z,36.93
2022-09-30T21:59:14.924Z,38.30
2022-09-30T22:01:43.645Z,38.40
2022-09-30T22:04:13.462Z,40.63
2022-09-30T22:06:42.008Z,40.77
2022-09-30T22:09:10.658Z,36.17
2022-09-30T22:11:39.122Z,38.53
2022-09-30T22:14:07.619Z,39.10
2022-09-30T22:16:36.380Z,37.27
2022-09-30T22:19:07.342Z,36.50
2022-09-30T22:21:38.448Z,35.70
2022-09-30T22:24:09.077Z,35.10
2022-09-30T22:26:38.184Z,36.23
2022-09-30T22:29:13.078Z,39.57
2022-09-30T22:31:41.656Z,38.23
2022-09-30T22:34:32.402Z,36.97
2022-09-30T22:37:21.884Z,35.07
2022-09-30T22:39:50.394Z,39.70
2022-09-30T22:42:19.150Z,34.23
2022-09-30T22:44:48.029Z,38.67
2022-09-30T22:47:17.275Z,35.80
2022-09-30T22:49:46.934Z,34.90
2022-09-30T22:52:17.351Z,35.50
2022-09-30T22:54:46.060Z,40.07
2022-09-30T22:57:15.069Z,35.13
2022-09-30T22:59:44.817Z,36.60
2022-09-30T23:02:13.676Z,36.97
2022-09-30T23:04:44.142Z,38.83
2022-09-30T23:07:12.725Z,38.53
2022-09-30T23:09:42.915Z,39.57
2022-09-30T23:12:13.937Z,40.73
2022-09-30T23:14:42.713Z,38.53
2022-09-30T23:17:13.107Z,39.17
2022-09-30T23:19:41.961Z,39.03
2022-09-30T23:22:11.063Z,35.80
2022-09-30T23:24:39.792Z,38.67
2022-09-30T23:27:10.100Z,38.10
2022-09-30T23:29:38.586Z,34.70
2022-09-30T23:32:07.325Z,38.27
2022-09-30T23:34:36.172Z,37.20
2022-09-30T23:37:05.003Z,40.13
2022-09-30T23:39:33.767Z,38.80
2022-09-30T23:42:02.564Z,36.20
2022-09-30T23:44:32.860Z,36.77
2022-09-30T23:47:19.655Z,39.40
2022-09-30T23:49:48.963Z,39.60
2022-09-30T23:52:17.891Z,40.97
2022-09-30T23:54:46.917Z,38.43
2022-09-30T23:57:15.610Z,35.30
2022-09-30T23:59:46.278Z,35.10
